• Join FlightAware (Why Join?)
  • Login
  • US Flag 
09:11PM EDT


 

Airport Tracker/Info


-or-


 

Live Flight TrackerFlight Track Log ✈ N600TR ✈ 19-Aug-2013 ✈ KDTW - KPHL

Flight Track Log - Related Links

Times and Time Zones

All times are in EDT time to prevent confusion due to time zone crossing. See the N600TR flight status page for this flight to view local times or setup timezone preferences in your user account.

Time Position Orientation Groundspeed Altitude Reporting Facility
EDT Latitude Longitude Course Direction KTS MPH feet Rate Location/Type
10:38AM 42.2017 -83.3583 96° East 148 170 1,300  Level Cleveland Center
10:39AM 42.1161 -83.3600 181° South 226 260 4,300 1,800 Climbing Cleveland Center
10:40AM 42.0350 -83.3481 174° South 297 342 6,100 1,800 Climbing Cleveland Center
10:41AM 42.2167 -82.6962 90° East  Level FlightAware Approximate
10:42AM 42.2167 -82.5318 90° East  Level FlightAware Approximate
10:42AM 42.0211 -83.2356 99° East 305 351 8,500  Level Cleveland Center
10:43AM 42.2117 -82.3678 96° East  Level FlightAware Approximate
10:43AM 42.0564 -83.1478 62° Northeast 282 325 9,000  Level Cleveland Center
10:44AM 42.0919 -83.0456 65° Northeast 288 331 10,100 1,140 Climbing Cleveland Center
10:45AM 42.1300 -82.9267 67° East 313 360 11,300 1,680 Climbing Cleveland Center
10:46AM 42.1697 -82.8047 66° East 336 387 13,500 1,980 Climbing Cleveland Center
10:47AM 42.2075 -82.6800 68° East 349 402 15,300 1,740 Climbing Cleveland Center
10:48AM 42.2247 -82.5431 80° East 356 410 17,000 1,560 Climbing Cleveland Center
10:49AM 42.2167 -82.4000 94° East 367 422 18,500 1,500 Climbing Cleveland Center
10:50AM 42.2000 -82.2536 99° East 374 430 20,000 1,500 Climbing Cleveland Center
10:51AM 42.1853 -82.1047 98° East 390 449 21,600 1,380 Climbing Cleveland Center
10:52AM 42.1728 -81.9531 96° East 398 458 22,800 1,200 Climbing Cleveland Center
10:53AM 42.1453 -81.8042 104° East 407 468 24,000 1,140 Climbing Cleveland Center
10:54AM 42.0461 -81.7156 146° Southeast 390 449 25,100 1,080 Climbing Cleveland Center
10:55AM 41.9281 -81.6269 151° Southeast 413 475 26,200 1,020 Climbing Cleveland Center
10:56AM 41.8247 -81.5333 146° Southeast 441 507 27,200 900 Climbing Cleveland Center
10:57AM 41.7275 -81.4233 140° Southeast 452 520 28,100 900 Climbing Cleveland Center
10:58AM 41.6344 -81.3056 137° Southeast 457 526 29,000 420 Climbing Cleveland Center
10:59AM 41.5414 -81.1797 135° Southeast 473 544 29,000  Level Cleveland Center
11:00AM 41.4483 -81.0569 135° Southeast 473 544 29,000  Level Cleveland Center
11:01AM 41.3633 -80.9483 136° Southeast 473 544 29,000  Level Cleveland Center
11:02AM 41.2678 -80.8261 136° Southeast 478 550 29,000  Level Cleveland Center
11:03AM 41.1678 -80.7128 140° Southeast 478 550 29,000  Level Cleveland Center
11:04AM 41.0719 -80.5914 136° Southeast 473 544 29,000  Level Cleveland Center
11:05AM 40.9822 -80.4622 133° Southeast 473 544 29,000  Level Cleveland Center
11:06AM 40.8986 -80.3083 126° Southeast 473 544 29,000  Level Cleveland Center
11:07AM 40.8128 -80.1797 131° Southeast 479 551 29,000  Level Cleveland Center
11:08AM 40.7456 -80.0322 121° Southeast 468 539 29,000  Level Cleveland Center
11:09AM 40.6986 -79.8628 110° East 468 539 29,000  Level Cleveland Center
11:10AM 40.6558 -79.6964 109° East 473 544 29,000  Level Cleveland Center
11:11AM 40.6042 -79.5275 112° Southeast 481 554 29,000  Level Cleveland Center
11:12AM 40.5506 -79.3644 113° Southeast 481 554 29,000 -240 Level Cleveland Center
11:13AM 40.5131 -79.1875 106° East 486 559 28,600 -840 Descending Cleveland Center
11:14AM 40.4983 -79.0186 96° East 506 582 27,400 -840 Descending Cleveland Center
11:15AM 40.4792 -78.8361 98° East 506 582 27,000 -540 Descending Cleveland Center
11:16AM 40.4617 -78.6536 97° East 501 577 26,400 -720 Descending Cleveland Center
11:17AM 40.4458 -78.4742 97° East 501 577 25,600 -420 Descending Cleveland Center
11:19AM 40.4042 -78.0108 97° East 498 573 25,000 -240 Descending New York Center
11:20AM 40.3883 -77.8264 96° East 503 579 24,900 -420 Descending New York Center
11:21AM 40.3717 -77.6503 97° East 503 579 24,200 -660 Descending New York Center
11:22AM 40.3528 -77.4714 98° East 498 573 23,600 -840 Descending New York Center
11:23AM 40.3333 -77.2978 98° East 491 565 22,600 -1,320 Descending New York Center
11:24AM 40.3039 -77.1481 104° East 478 550 21,000 -2,400 Descending New York Center
11:25AM 40.2767 -76.9931 103° East 453 521 17,900 -2,100 Descending New York Center
11:26AM 40.2481 -76.8219 102° East 439 505 16,900 -1,500 Descending New York Center
11:27AM 40.2275 -76.6922 102° East 424 488 14,900 -1,620 Descending New York Center
11:28AM 40.2014 -76.5461 103° East 418 481 13,700 -1,140 Descending New York Center
11:29AM 40.1586 -76.3986 111° Southeast 408 470 12,700 -1,320 Descending New York Center
11:30AM 40.1147 -76.2672 114° Southeast 396 456 11,100 -1,260 Descending New York Center
11:31AM 40.0953 -76.1436 102° East 362 417 10,200 -900 Descending New York Center
11:32AM 40.1042 -76.0386 84° East 338 389 9,400 -900 Descending New York Center
11:33AM 40.0886 -75.9206 100° East 302 348 8,400 -1,380 Descending New York Center
11:34AM 40.0744 -75.8164 100° East 290 334 6,700 -1,200 Descending New York Center
11:35AM 40.0636 -75.7289 99° East 283 326 6,100 -360 Descending New York Center
11:36AM 40.0514 -75.6169 98° East 282 325 6,000 -60 Descending New York Center
11:37AM 40.0492 -75.5217 92° East 288 331 6,000  Level New York Center
11:38AM 40.0475 -75.4078 91° East 293 337 6,000  Level New York Center
11:39AM 40.0500 -75.3167 88° East 279 321 6,000  Level Philadelphia TRACON
11:40AM 40.0500 -75.2000 90° East 276 318 6,000  Level Philadelphia TRACON
11:41AM 39.9833 -75.1667 159° South 204 235 6,100  Climbing Philadelphia TRACON
11:42AM 39.9833 -75.1000 90° East 235 270 6,000 -720 Descending Philadelphia TRACON
11:43AM 39.9833 -75.0167 90° East 196 226 4,600 -1,080 Descending Philadelphia TRACON
11:44AM 40.0000 -74.9500 72° East 201 231 4,000 -480 Descending Philadelphia TRACON
11:45AM 40.0000 -74.8667 90° East 194 223 3,600 -540 Descending Philadelphia TRACON
11:46AM 39.9500 -74.8667 180° South 189 217 2,900 -300 Descending Philadelphia TRACON
11:47AM 39.9333 -74.9167 247° West 169 194 3,100  Climbing Philadelphia TRACON
11:48AM 39.9333 -74.9667 270° West 177 204 3,000 -60 Descending Philadelphia TRACON
11:49AM 39.9167 -75.0333 252° West 172 198 3,000 -540 Level Philadelphia TRACON
11:50AM 39.9000 -75.1000 252° West 169 194 1,900 -900 Descending Philadelphia TRACON
11:51AM 39.8833 -75.1500 247° West 154 177 1,100 -780 Descending Philadelphia TRACON
11:52AM 39.8833 -75.2000 270° West 132 152 400 -720 Descending Philadelphia TRACON